sensor_id;sensor_type;location;lat;lon;timestamp;P1;durP1;ratioP1;P2;durP2;ratioP2
75912;SDS011;64592;52.168;21.040;2023-02-18T00:01:09;3.53;;;1.80;;
75912;SDS011;64592;52.168;21.040;2023-02-18T00:06:20;4.35;;;2.00;;
75912;SDS011;64592;52.168;21.040;2023-02-18T00:11:23;4.55;;;1.45;;
75912;SDS011;64592;52.168;21.040;2023-02-18T00:16:25;7.25;;;1.98;;
75912;SDS011;64592;52.168;21.040;2023-02-18T00:21:29;6.70;;;1.90;;
75912;SDS011;64592;52.168;21.040;2023-02-18T00:26:33;14.18;;;3.13;;
75912;SDS011;64592;52.168;21.040;2023-02-18T00:31:35;7.07;;;1.80;;
75912;SDS011;64592;52.168;21.040;2023-02-18T00:36:40;5.07;;;1.77;;
75912;SDS011;64592;52.168;21.040;2023-02-18T00:41:42;2.88;;;1.17;;
75912;SDS011;64592;52.168;21.040;2023-02-18T00:46:44;8.95;;;1.90;;
75912;SDS011;64592;52.168;21.040;2023-02-18T00:51:48;10.38;;;1.95;;
75912;SDS011;64592;52.168;21.040;2023-02-18T00:56:50;10.35;;;2.00;;
75912;SDS011;64592;52.168;21.040;2023-02-18T01:01:52;7.43;;;3.22;;
75912;SDS011;64592;52.168;21.040;2023-02-18T01:06:55;3.65;;;1.77;;
75912;SDS011;64592;52.168;21.040;2023-02-18T01:11:56;12.60;;;2.00;;
75912;SDS011;64592;52.168;21.040;2023-02-18T01:16:58;7.07;;;2.92;;
75912;SDS011;64592;52.168;21.040;2023-02-18T01:22:01;2.20;;;1.20;;
75912;SDS011;64592;52.168;21.040;2023-02-18T01:27:03;4.55;;;1.63;;
75912;SDS011;64592;52.168;21.040;2023-02-18T01:32:05;7.38;;;2.20;;
75912;SDS011;64592;52.168;21.040;2023-02-18T01:37:08;6.45;;;2.00;;
75912;SDS011;64592;52.168;21.040;2023-02-18T01:42:14;4.20;;;1.77;;
75912;SDS011;64592;52.168;21.040;2023-02-18T01:47:19;7.70;;;2.58;;
75912;SDS011;64592;52.168;21.040;2023-02-18T01:52:23;3.38;;;1.77;;
75912;SDS011;64592;52.168;21.040;2023-02-18T01:57:28;6.45;;;2.38;;
75912;SDS011;64592;52.168;21.040;2023-02-18T02:02:34;6.90;;;1.90;;
75912;SDS011;64592;52.168;21.040;2023-02-18T02:07:41;6.65;;;1.48;;
75912;SDS011;64592;52.168;21.040;2023-02-18T02:12:51;3.50;;;1.30;;
75912;SDS011;64592;52.168;21.040;2023-02-18T02:23:27;8.88;;;1.92;;
75912;SDS011;64592;52.168;21.040;2023-02-18T02:28:59;9.63;;;2.10;;
75912;SDS011;64592;52.168;21.040;2023-02-18T02:34:27;5.43;;;1.73;;
75912;SDS011;64592;52.168;21.040;2023-02-18T02:39:42;8.02;;;2.25;;
75912;SDS011;64592;52.168;21.040;2023-02-18T02:44:57;5.28;;;1.55;;
75912;SDS011;64592;52.168;21.040;2023-02-18T02:50:07;6.60;;;2.25;;
75912;SDS011;64592;52.168;21.040;2023-02-18T02:55:13;5.75;;;1.50;;
75912;SDS011;64592;52.168;21.040;2023-02-18T03:00:16;3.70;;;1.25;;
75912;SDS011;64592;52.168;21.040;2023-02-18T03:05:23;9.98;;;1.85;;
75912;SDS011;64592;52.168;21.040;2023-02-18T03:10:38;7.28;;;1.73;;
75912;SDS011;64592;52.168;21.040;2023-02-18T03:15:52;6.70;;;2.53;;
75912;SDS011;64592;52.168;21.040;2023-02-18T03:20:59;9.45;;;2.70;;
75912;SDS011;64592;52.168;21.040;2023-02-18T03:26:06;7.35;;;2.63;;
75912;SDS011;64592;52.168;21.040;2023-02-18T03:31:11;5.30;;;2.22;;
75912;SDS011;64592;52.168;21.040;2023-02-18T03:36:17;2.67;;;1.25;;
75912;SDS011;64592;52.168;21.040;2023-02-18T03:41:21;4.18;;;1.50;;
75912;SDS011;64592;52.168;21.040;2023-02-18T03:46:23;7.50;;;2.20;;
75912;SDS011;64592;52.168;21.040;2023-02-18T03:51:26;7.18;;;1.95;;
75912;SDS011;64592;52.168;21.040;2023-02-18T03:56:28;4.43;;;1.63;;
75912;SDS011;64592;52.168;21.040;2023-02-18T04:01:30;10.32;;;2.33;;
75912;SDS011;64592;52.168;21.040;2023-02-18T04:06:33;8.98;;;2.60;;
75912;SDS011;64592;52.168;21.040;2023-02-18T04:11:35;12.68;;;2.45;;
75912;SDS011;64592;52.168;21.040;2023-02-18T04:16:37;4.88;;;2.20;;
75912;SDS011;64592;52.168;21.040;2023-02-18T04:21:40;6.78;;;1.65;;
75912;SDS011;64592;52.168;21.040;2023-02-18T04:26:42;6.13;;;1.67;;
75912;SDS011;64592;52.168;21.040;2023-02-18T04:31:44;8.25;;;1.77;;
75912;SDS011;64592;52.168;21.040;2023-02-18T04:36:47;8.02;;;1.85;;
75912;SDS011;64592;52.168;21.040;2023-02-18T04:41:48;6.45;;;1.67;;
75912;SDS011;64592;52.168;21.040;2023-02-18T04:46:50;8.73;;;1.60;;
75912;SDS011;64592;52.168;21.040;2023-02-18T04:51:53;4.30;;;1.58;;
75912;SDS011;64592;52.168;21.040;2023-02-18T04:56:55;6.50;;;1.73;;
75912;SDS011;64592;52.168;21.040;2023-02-18T05:01:56;5.95;;;1.98;;
75912;SDS011;64592;52.168;21.040;2023-02-18T05:07:00;3.50;;;1.38;;
75912;SDS011;64592;52.168;21.040;2023-02-18T05:12:01;4.50;;;1.80;;
75912;SDS011;64592;52.168;21.040;2023-02-18T05:17:03;9.93;;;2.20;;
75912;SDS011;64592;52.168;21.040;2023-02-18T05:22:06;5.85;;;2.60;;
75912;SDS011;64592;52.168;21.040;2023-02-18T05:27:08;7.25;;;1.95;;
75912;SDS011;64592;52.168;21.040;2023-02-18T05:32:10;3.72;;;1.25;;
75912;SDS011;64592;52.168;21.040;2023-02-18T05:37:13;6.15;;;1.75;;
75912;SDS011;64592;52.168;21.040;2023-02-18T05:42:16;10.48;;;1.90;;
75912;SDS011;64592;52.168;21.040;2023-02-18T05:47:17;4.50;;;1.92;;
75912;SDS011;64592;52.168;21.040;2023-02-18T05:52:20;7.35;;;2.33;;
75912;SDS011;64592;52.168;21.040;2023-02-18T05:57:22;5.60;;;2.25;;
75912;SDS011;64592;52.168;21.040;2023-02-18T06:02:25;5.78;;;1.58;;
75912;SDS011;64592;52.168;21.040;2023-02-18T06:07:28;3.33;;;1.67;;
75912;SDS011;64592;52.168;21.040;2023-02-18T06:12:30;8.02;;;2.63;;
75912;SDS011;64592;52.168;21.040;2023-02-18T06:17:31;8.32;;;2.30;;
75912;SDS011;64592;52.168;21.040;2023-02-18T06:22:34;4.80;;;1.85;;
75912;SDS011;64592;52.168;21.040;2023-02-18T06:27:36;8.40;;;2.42;;
75912;SDS011;64592;52.168;21.040;2023-02-18T06:32:38;3.72;;;1.90;;
75912;SDS011;64592;52.168;21.040;2023-02-18T06:37:41;8.25;;;2.10;;
75912;SDS011;64592;52.168;21.040;2023-02-18T06:42:43;7.43;;;1.98;;
75912;SDS011;64592;52.168;21.040;2023-02-18T06:47:45;11.40;;;2.40;;
75912;SDS011;64592;52.168;21.040;2023-02-18T06:52:48;6.80;;;2.50;;
75912;SDS011;64592;52.168;21.040;2023-02-18T06:57:50;4.05;;;1.42;;
75912;SDS011;64592;52.168;21.040;2023-02-18T07:02:52;4.05;;;1.80;;
75912;SDS011;64592;52.168;21.040;2023-02-18T07:07:55;2.28;;;1.50;;
75912;SDS011;64592;52.168;21.040;2023-02-18T07:12:57;5.93;;;1.23;;
75912;SDS011;64592;52.168;21.040;2023-02-18T07:17:58;7.50;;;1.65;;
75912;SDS011;64592;52.168;21.040;2023-02-18T07:23:02;6.18;;;2.55;;
75912;SDS011;64592;52.168;21.040;2023-02-18T07:28:04;6.22;;;1.80;;
75912;SDS011;64592;52.168;21.040;2023-02-18T07:33:05;6.38;;;2.05;;
75912;SDS011;64592;52.168;21.040;2023-02-18T07:38:09;3.25;;;1.38;;
75912;SDS011;64592;52.168;21.040;2023-02-18T07:43:10;11.55;;;2.70;;
75912;SDS011;64592;52.168;21.040;2023-02-18T07:48:12;3.90;;;1.48;;
75912;SDS011;64592;52.168;21.040;2023-02-18T07:53:15;5.18;;;2.15;;
75912;SDS011;64592;52.168;21.040;2023-02-18T07:58:18;8.32;;;1.98;;
75912;SDS011;64592;52.168;21.040;2023-02-18T08:03:22;7.63;;;2.33;;
75912;SDS011;64592;52.168;21.040;2023-02-18T08:08:28;13.98;;;2.30;;
75912;SDS011;64592;52.168;21.040;2023-02-18T08:13:31;4.32;;;1.63;;
75912;SDS011;64592;52.168;21.040;2023-02-18T08:18:32;7.53;;;2.08;;
75912;SDS011;64592;52.168;21.040;2023-02-18T08:23:35;5.90;;;2.60;;
75912;SDS011;64592;52.168;21.040;2023-02-18T08:28:37;7.15;;;2.63;;
75912;SDS011;64592;52.168;21.040;2023-02-18T08:33:40;6.45;;;2.30;;
75912;SDS011;64592;52.168;21.040;2023-02-18T08:38:43;10.82;;;2.45;;
75912;SDS011;64592;52.168;21.040;2023-02-18T08:43:44;7.40;;;2.30;;
75912;SDS011;64592;52.168;21.040;2023-02-18T08:48:47;5.78;;;1.70;;
75912;SDS011;64592;52.168;21.040;2023-02-18T08:53:50;13.13;;;3.05;;
75912;SDS011;64592;52.168;21.040;2023-02-18T08:58:51;8.43;;;2.08;;
75912;SDS011;64592;52.168;21.040;2023-02-18T09:03:53;7.95;;;2.65;;
75912;SDS011;64592;52.168;21.040;2023-02-18T09:08:56;3.85;;;2.00;;
75912;SDS011;64592;52.168;21.040;2023-02-18T09:13:58;7.80;;;2.35;;
75912;SDS011;64592;52.168;21.040;2023-02-18T09:19:00;6.07;;;2.17;;
75912;SDS011;64592;52.168;21.040;2023-02-18T09:24:03;5.85;;;3.30;;
75912;SDS011;64592;52.168;21.040;2023-02-18T09:29:05;5.53;;;2.35;;
75912;SDS011;64592;52.168;21.040;2023-02-18T09:34:07;8.18;;;2.63;;
75912;SDS011;64592;52.168;21.040;2023-02-18T09:39:10;8.10;;;2.90;;
75912;SDS011;64592;52.168;21.040;2023-02-18T09:44:12;10.75;;;2.50;;
75912;SDS011;64592;52.168;21.040;2023-02-18T09:49:21;9.10;;;2.60;;
75912;SDS011;64592;52.168;21.040;2023-02-18T09:54:27;7.32;;;2.70;;
75912;SDS011;64592;52.168;21.040;2023-02-18T09:59:29;8.05;;;2.33;;
75912;SDS011;64592;52.168;21.040;2023-02-18T10:04:34;10.32;;;2.15;;
75912;SDS011;64592;52.168;21.040;2023-02-18T10:09:42;8.98;;;2.10;;
75912;SDS011;64592;52.168;21.040;2023-02-18T10:14:46;4.32;;;1.75;;
75912;SDS011;64592;52.168;21.040;2023-02-18T10:19:50;8.68;;;2.78;;
75912;SDS011;64592;52.168;21.040;2023-02-18T10:24:55;8.80;;;2.53;;
75912;SDS011;64592;52.168;21.040;2023-02-18T10:30:02;16.90;;;2.38;;
75912;SDS011;64592;52.168;21.040;2023-02-18T10:35:20;6.03;;;3.03;;
75912;SDS011;64592;52.168;21.040;2023-02-18T10:40:29;8.82;;;2.72;;
75912;SDS011;64592;52.168;21.040;2023-02-18T10:45:43;7.65;;;2.58;;
75912;SDS011;64592;52.168;21.040;2023-02-18T10:50:50;7.72;;;2.30;;
75912;SDS011;64592;52.168;21.040;2023-02-18T10:55:53;10.55;;;2.97;;
75912;SDS011;64592;52.168;21.040;2023-02-18T11:00:55;10.05;;;3.10;;
75912;SDS011;64592;52.168;21.040;2023-02-18T11:05:58;10.35;;;2.88;;
75912;SDS011;64592;52.168;21.040;2023-02-18T11:11:05;8.07;;;2.63;;
75912;SDS011;64592;52.168;21.040;2023-02-18T11:16:13;10.02;;;2.72;;
75912;SDS011;64592;52.168;21.040;2023-02-18T11:21:23;5.60;;;2.25;;
75912;SDS011;64592;52.168;21.040;2023-02-18T11:26:31;8.65;;;3.20;;
75912;SDS011;64592;52.168;21.040;2023-02-18T11:31:39;7.82;;;2.35;;
75912;SDS011;64592;52.168;21.040;2023-02-18T11:36:43;9.95;;;2.80;;
75912;SDS011;64592;52.168;21.040;2023-02-18T11:41:47;6.65;;;2.58;;
75912;SDS011;64592;52.168;21.040;2023-02-18T11:46:55;12.23;;;3.45;;
75912;SDS011;64592;52.168;21.040;2023-02-18T11:52:02;4.18;;;1.92;;
75912;SDS011;64592;52.168;21.040;2023-02-18T11:57:10;11.23;;;3.70;;
75912;SDS011;64592;52.168;21.040;2023-02-18T12:02:21;15.93;;;3.20;;
75912;SDS011;64592;52.168;21.040;2023-02-18T12:07:33;6.32;;;1.85;;
75912;SDS011;64592;52.168;21.040;2023-02-18T12:12:45;8.60;;;2.20;;
75912;SDS011;64592;52.168;21.040;2023-02-18T12:17:55;9.43;;;2.33;;
75912;SDS011;64592;52.168;21.040;2023-02-18T12:23:07;15.00;;;2.80;;
75912;SDS011;64592;52.168;21.040;2023-02-18T12:28:21;11.60;;;3.83;;
75912;SDS011;64592;52.168;21.040;2023-02-18T12:33:33;7.20;;;2.47;;
75912;SDS011;64592;52.168;21.040;2023-02-18T12:38:52;9.38;;;3.22;;
75912;SDS011;64592;52.168;21.040;2023-02-18T12:44:03;11.82;;;3.53;;
75912;SDS011;64592;52.168;21.040;2023-02-18T12:49:23;8.70;;;2.38;;
75912;SDS011;64592;52.168;21.040;2023-02-18T12:54:46;6.07;;;2.50;;
75912;SDS011;64592;52.168;21.040;2023-02-18T13:00:15;4.82;;;2.70;;
75912;SDS011;64592;52.168;21.040;2023-02-18T13:05:35;12.75;;;2.72;;
75912;SDS011;64592;52.168;21.040;2023-02-18T13:10:49;9.35;;;3.10;;
75912;SDS011;64592;52.168;21.040;2023-02-18T13:15:58;11.77;;;2.90;;
75912;SDS011;64592;52.168;21.040;2023-02-18T13:21:04;6.05;;;2.90;;
75912;SDS011;64592;52.168;21.040;2023-02-18T13:26:08;6.95;;;3.22;;
75912;SDS011;64592;52.168;21.040;2023-02-18T13:31:18;5.82;;;2.60;;
75912;SDS011;64592;52.168;21.040;2023-02-18T13:36:31;8.27;;;2.63;;
75912;SDS011;64592;52.168;21.040;2023-02-18T13:41:46;8.45;;;2.53;;
75912;SDS011;64592;52.168;21.040;2023-02-18T13:46:51;10.18;;;2.83;;
75912;SDS011;64592;52.168;21.040;2023-02-18T13:51:55;8.15;;;2.55;;
75912;SDS011;64592;52.168;21.040;2023-02-18T13:57:00;8.10;;;3.33;;
75912;SDS011;64592;52.168;21.040;2023-02-18T14:02:27;12.60;;;3.08;;
75912;SDS011;64592;52.168;21.040;2023-02-18T14:07:44;5.22;;;2.63;;
75912;SDS011;64592;52.168;21.040;2023-02-18T14:12:59;5.03;;;2.10;;
75912;SDS011;64592;52.168;21.040;2023-02-18T14:18:24;8.35;;;3.50;;
75912;SDS011;64592;52.168;21.040;2023-02-18T14:23:41;11.68;;;2.78;;
75912;SDS011;64592;52.168;21.040;2023-02-18T14:28:48;9.70;;;2.20;;
75912;SDS011;64592;52.168;21.040;2023-02-18T14:34:02;8.70;;;2.80;;
75912;SDS011;64592;52.168;21.040;2023-02-18T14:39:22;11.20;;;2.67;;
75912;SDS011;64592;52.168;21.040;2023-02-18T14:44:39;6.53;;;2.63;;
75912;SDS011;64592;52.168;21.040;2023-02-18T14:49:53;8.65;;;2.90;;
75912;SDS011;64592;52.168;21.040;2023-02-18T14:54:59;8.07;;;2.63;;
75912;SDS011;64592;52.168;21.040;2023-02-18T15:00:03;8.20;;;3.60;;
75912;SDS011;64592;52.168;21.040;2023-02-18T15:05:14;3.72;;;2.40;;
75912;SDS011;64592;52.168;21.040;2023-02-18T15:10:19;5.15;;;1.98;;
75912;SDS011;64592;52.168;21.040;2023-02-18T15:15:21;5.72;;;2.50;;
75912;SDS011;64592;52.168;21.040;2023-02-18T15:20:33;3.97;;;1.55;;
75912;SDS011;64592;52.168;21.040;2023-02-18T15:25:35;4.97;;;2.72;;
75912;SDS011;64592;52.168;21.040;2023-02-18T15:30:37;7.78;;;2.40;;
75912;SDS011;64592;52.168;21.040;2023-02-18T15:35:40;8.40;;;2.40;;
75912;SDS011;64592;52.168;21.040;2023-02-18T15:40:43;2.42;;;1.60;;
75912;SDS011;64592;52.168;21.040;2023-02-18T15:45:50;4.05;;;1.52;;
75912;SDS011;64592;52.168;21.040;2023-02-18T15:50:56;2.55;;;1.38;;
75912;SDS011;64592;52.168;21.040;2023-02-18T15:56:05;4.55;;;1.90;;
75912;SDS011;64592;52.168;21.040;2023-02-18T16:01:22;9.15;;;2.00;;
75912;SDS011;64592;52.168;21.040;2023-02-18T16:06:29;7.40;;;3.00;;
75912;SDS011;64592;52.168;21.040;2023-02-18T16:11:36;4.28;;;2.03;;
75912;SDS011;64592;52.168;21.040;2023-02-18T16:16:41;5.22;;;2.22;;
75912;SDS011;64592;52.168;21.040;2023-02-18T16:21:44;5.78;;;2.40;;
75912;SDS011;64592;52.168;21.040;2023-02-18T16:26:46;8.00;;;2.25;;
75912;SDS011;64592;52.168;21.040;2023-02-18T16:31:50;8.02;;;2.50;;
75912;SDS011;64592;52.168;21.040;2023-02-18T16:36:53;7.88;;;2.90;;
75912;SDS011;64592;52.168;21.040;2023-02-18T16:42:12;4.32;;;2.10;;
75912;SDS011;64592;52.168;21.040;2023-02-18T16:47:14;4.63;;;2.08;;
75912;SDS011;64592;52.168;21.040;2023-02-18T16:52:19;7.00;;;2.97;;
75912;SDS011;64592;52.168;21.040;2023-02-18T16:57:21;10.43;;;3.50;;
75912;SDS011;64592;52.168;21.040;2023-02-18T17:02:29;5.68;;;2.65;;
75912;SDS011;64592;52.168;21.040;2023-02-18T17:07:33;6.47;;;4.15;;
75912;SDS011;64592;52.168;21.040;2023-02-18T17:12:36;6.65;;;2.35;;
75912;SDS011;64592;52.168;21.040;2023-02-18T17:17:41;5.65;;;2.45;;
75912;SDS011;64592;52.168;21.040;2023-02-18T17:22:44;6.28;;;2.50;;
75912;SDS011;64592;52.168;21.040;2023-02-18T17:27:46;9.60;;;3.40;;
75912;SDS011;64592;52.168;21.040;2023-02-18T17:32:48;5.57;;;2.65;;
75912;SDS011;64592;52.168;21.040;2023-02-18T17:37:52;10.90;;;3.65;;
75912;SDS011;64592;52.168;21.040;2023-02-18T17:42:54;7.88;;;3.78;;
75912;SDS011;64592;52.168;21.040;2023-02-18T17:47:57;6.03;;;3.58;;
75912;SDS011;64592;52.168;21.040;2023-02-18T17:53:01;7.35;;;3.90;;
75912;SDS011;64592;52.168;21.040;2023-02-18T17:58:03;8.75;;;3.45;;
75912;SDS011;64592;52.168;21.040;2023-02-18T18:03:05;8.68;;;2.78;;
75912;SDS011;64592;52.168;21.040;2023-02-18T18:08:09;5.18;;;2.92;;
75912;SDS011;64592;52.168;21.040;2023-02-18T18:13:14;6.15;;;3.03;;
75912;SDS011;64592;52.168;21.040;2023-02-18T18:18:19;7.20;;;3.13;;
75912;SDS011;64592;52.168;21.040;2023-02-18T18:23:23;8.77;;;3.63;;
75912;SDS011;64592;52.168;21.040;2023-02-18T18:28:25;6.03;;;2.95;;
75912;SDS011;64592;52.168;21.040;2023-02-18T18:33:28;7.22;;;3.35;;
75912;SDS011;64592;52.168;21.040;2023-02-18T18:38:34;8.85;;;3.33;;
75912;SDS011;64592;52.168;21.040;2023-02-18T18:43:36;4.43;;;2.70;;
75912;SDS011;64592;52.168;21.040;2023-02-18T18:48:39;6.47;;;2.70;;
75912;SDS011;64592;52.168;21.040;2023-02-18T18:53:42;6.63;;;2.92;;
75912;SDS011;64592;52.168;21.040;2023-02-18T18:58:44;8.70;;;4.28;;
75912;SDS011;64592;52.168;21.040;2023-02-18T19:03:45;9.60;;;3.70;;
75912;SDS011;64592;52.168;21.040;2023-02-18T19:08:49;7.93;;;3.78;;
75912;SDS011;64592;52.168;21.040;2023-02-18T19:13:50;3.88;;;2.25;;
75912;SDS011;64592;52.168;21.040;2023-02-18T19:18:52;6.97;;;2.90;;
75912;SDS011;64592;52.168;21.040;2023-02-18T19:23:55;7.00;;;3.05;;
75912;SDS011;64592;52.168;21.040;2023-02-18T19:28:58;8.07;;;3.17;;
75912;SDS011;64592;52.168;21.040;2023-02-18T19:34:00;9.15;;;4.18;;
75912;SDS011;64592;52.168;21.040;2023-02-18T19:39:03;8.80;;;4.88;;
75912;SDS011;64592;52.168;21.040;2023-02-18T19:44:05;8.13;;;4.75;;
75912;SDS011;64592;52.168;21.040;2023-02-18T19:49:07;7.18;;;4.07;;
75912;SDS011;64592;52.168;21.040;2023-02-18T19:54:10;10.30;;;5.05;;
75912;SDS011;64592;52.168;21.040;2023-02-18T19:59:11;7.80;;;4.70;;
75912;SDS011;64592;52.168;21.040;2023-02-18T20:04:13;6.75;;;4.03;;
75912;SDS011;64592;52.168;21.040;2023-02-18T20:09:16;8.65;;;4.93;;
75912;SDS011;64592;52.168;21.040;2023-02-18T20:14:18;8.07;;;4.63;;
75912;SDS011;64592;52.168;21.040;2023-02-18T20:19:20;8.52;;;4.60;;
75912;SDS011;64592;52.168;21.040;2023-02-18T20:24:25;8.95;;;5.72;;
75912;SDS011;64592;52.168;21.040;2023-02-18T20:29:28;7.47;;;4.18;;
75912;SDS011;64592;52.168;21.040;2023-02-18T20:34:32;13.63;;;5.05;;
75912;SDS011;64592;52.168;21.040;2023-02-18T20:39:35;7.80;;;4.22;;
75912;SDS011;64592;52.168;21.040;2023-02-18T20:44:37;10.23;;;4.60;;
75912;SDS011;64592;52.168;21.040;2023-02-18T20:49:39;8.07;;;4.70;;
75912;SDS011;64592;52.168;21.040;2023-02-18T20:54:43;8.07;;;4.60;;
75912;SDS011;64592;52.168;21.040;2023-02-18T20:59:45;11.98;;;5.53;;
75912;SDS011;64592;52.168;21.040;2023-02-18T21:04:46;7.65;;;5.13;;
75912;SDS011;64592;52.168;21.040;2023-02-18T21:09:49;9.38;;;5.57;;
75912;SDS011;64592;52.168;21.040;2023-02-18T21:14:51;10.90;;;5.53;;
75912;SDS011;64592;52.168;21.040;2023-02-18T21:19:53;9.95;;;5.45;;
75912;SDS011;64592;52.168;21.040;2023-02-18T21:24:56;10.32;;;5.10;;
75912;SDS011;64592;52.168;21.040;2023-02-18T21:29:58;10.82;;;5.47;;
75912;SDS011;64592;52.168;21.040;2023-02-18T21:35:00;9.07;;;5.68;;
75912;SDS011;64592;52.168;21.040;2023-02-18T21:40:05;8.98;;;4.38;;
75912;SDS011;64592;52.168;21.040;2023-02-18T21:45:07;10.73;;;4.70;;
75912;SDS011;64592;52.168;21.040;2023-02-18T21:50:09;9.90;;;5.18;;
75912;SDS011;64592;52.168;21.040;2023-02-18T21:55:13;7.60;;;4.78;;
75912;SDS011;64592;52.168;21.040;2023-02-18T22:00:15;8.45;;;4.75;;
75912;SDS011;64592;52.168;21.040;2023-02-18T22:05:17;8.75;;;4.80;;
75912;SDS011;64592;52.168;21.040;2023-02-18T22:10:20;9.77;;;5.15;;
75912;SDS011;64592;52.168;21.040;2023-02-18T22:15:22;11.77;;;5.00;;
75912;SDS011;64592;52.168;21.040;2023-02-18T22:20:24;7.47;;;5.03;;
75912;SDS011;64592;52.168;21.040;2023-02-18T22:25:27;7.15;;;4.03;;
75912;SDS011;64592;52.168;21.040;2023-02-18T22:30:28;8.93;;;4.60;;
75912;SDS011;64592;52.168;21.040;2023-02-18T22:35:30;7.50;;;4.80;;
75912;SDS011;64592;52.168;21.040;2023-02-18T22:40:34;9.80;;;5.43;;
75912;SDS011;64592;52.168;21.040;2023-02-18T22:45:36;9.27;;;5.38;;
75912;SDS011;64592;52.168;21.040;2023-02-18T22:50:37;6.72;;;4.28;;
75912;SDS011;64592;52.168;21.040;2023-02-18T22:55:40;8.13;;;4.78;;
75912;SDS011;64592;52.168;21.040;2023-02-18T23:00:42;8.32;;;4.57;;
75912;SDS011;64592;52.168;21.040;2023-02-18T23:05:44;8.38;;;4.63;;
75912;SDS011;64592;52.168;21.040;2023-02-18T23:10:47;9.50;;;5.30;;
75912;SDS011;64592;52.168;21.040;2023-02-18T23:16:00;10.90;;;6.35;;
75912;SDS011;64592;52.168;21.040;2023-02-18T23:21:06;10.05;;;4.70;;
75912;SDS011;64592;52.168;21.040;2023-02-18T23:26:23;11.10;;;5.53;;
75912;SDS011;64592;52.168;21.040;2023-02-18T23:31:25;13.40;;;5.88;;
75912;SDS011;64592;52.168;21.040;2023-02-18T23:36:28;9.48;;;5.03;;
75912;SDS011;64592;52.168;21.040;2023-02-18T23:41:33;10.10;;;6.32;;
75912;SDS011;64592;52.168;21.040;2023-02-18T23:46:35;9.27;;;4.47;;
75912;SDS011;64592;52.168;21.040;2023-02-18T23:51:38;7.93;;;4.70;;
75912;SDS011;64592;52.168;21.040;2023-02-18T23:56:41;9.10;;;4.63;;
